Epping, ND

4:43 PM CDT on July 22, 2014 (GMT -0500)
Watford City (KS25) Elev 2110 ft | 47.80 °N, 103.26 °W | Change Station

Current weather conditions updated 8 minutes ago

Partly Cloudy
Partly Cloudy
81 °F
Feels Like 81 °F
N
0
Wind Variable Wind from North

Tomorrow is forecast to be nearly the same temperature as today. Thunderstorms developing late tomorrow night.

Today
High -- | Low -- °F
--% Chance of Precip.
Yesterday
High -- | Low -- °F
Precip. -- in
6:16 AM 9:42 PM
Waning Crescent, 15% visible
Pressure 30.16 in
Visibility 10.0 miles
Clouds Few 6000 ft
Heat Index 81 °F
Dew Point 57 °F
Humidity 45%
Rainfall 0.00 in
Snow Depth Not available.
UV 7 out of 12
Pollen 6.10 out of 12
Air Quality Not available.
Flu Activity Not available.
METAR KS25 222135Z AUTO 00000KT 10SM FEW060 27/14 A3016 RMK AO2

More Conditions Fewer Conditions

Pressure 30.16 in
Visibility 10.0 miles
Clouds Few 6000 ft
Heat Index 81 °F
Dew Point 57 °F
Humidity 45%
Rainfall 0.00 in
Snow Depth Not available.
UV 7 out of 12
Pollen 6.10 out of 12
Air Quality Not available.
Flu Activity Not available.
METAR KS25 222135Z AUTO 00000KT 10SM FEW060 27/14 A3016 RMK AO2

More Conditions Fewer Conditions

10-Day Weather Forecast

Almanac

Astronomy

Jul. 22, 2014 Rise Set
Actual Time 6:16 AM CDT 9:42 PM CDT
Civil Twilight 5:37 AM CDT 10:20 PM CDT
Nautical Twilight 4:46 AM CDT 11:11 PM CDT
Astronomical Twilight 3:38 AM CDT 12:18 AM CDT
Moon 2:54 AM CDT 6:20 PM CDT
Length of Visible Light 16h 42m
Length of Day
15h 26m
Tomorrow will be 2m 20s shorter.
Waning Crescent, 15% of the Moon is Illuminated
Today
Waning Crescent
Jul 26
New
Aug 3
First Quarter
Aug 10
Full
Aug 17
Last Quarter

Today's Extremes

State Highs State Lows

Community

WunderPhotos

Upload Photos

1,736,363 photos uploaded!

Nearby

Snow Depth

Station Depth Elevation
No new snow has been reported.

Earthquake Activity

City Distance Mag. Time & Date
No recent earthquake activity has been reported nearby.
Minimum magnitude displayed is 2.5.

Coastal Water Temperatures

Place Temperature
No Stations Reporting

Nearby Weather Stations

Station Location Temp. Windchill Dew Point Humidity Wind Precip. Elev Updated Type
Herculift Inc, Williston, ND 83.8 °F - 56 °F 38% East  at  2.0 mph 0.00 in / hr 2021 ft 5:43 PM EDT Rapid Fire
Valhalla, Williston, ND 0.0 °F -14 °F - - NNE  at  8.1 mph 0.00 in / hr 2040 ft 4:39 PM CDT Rapid Fire
Johnson's weather, Williston, ND 85.7 °F - 58 °F 39% WNW  at  7.0 mph 0.00 in / hr 1916 ft 4:43 PM CDT Rapid Fire
Alamo, ND 81.1 °F - 58 °F 45% NNW  at  9.0 mph 0.00 in / hr 2090 ft 4:28 PM CDT Normal
Bennet Loop Industrial Park, Williston, ND 82.5 °F - 55 °F 39% NW  at  13.0 mph 0.00 in / hr 2080 ft 4:43 PM CDT Rapid Fire
South of Alamo, ND, ALAMO, ND 88.3 °F - 56 °F 33% SSW  at  4.7 mph 0.00 in / hr 2116 ft 4:43 PM CDT Rapid Fire

Show More Stations Show Fewer Stations